sensor_id;sensor_type;location;lat;lon;timestamp;pressure;altitude;pressure_sealevel;temperature;humidity
40155;BME280;25875;48.202;16.334;2023-05-23T00:01:37;98674.44;;;20.41;53.50
40155;BME280;25875;48.202;16.334;2023-05-23T00:04:05;98683.69;;;20.39;53.76
40155;BME280;25875;48.202;16.334;2023-05-23T00:06:33;98675.25;;;20.34;53.86
40155;BME280;25875;48.202;16.334;2023-05-23T00:09:02;98678.09;;;20.32;53.90
40155;BME280;25875;48.202;16.334;2023-05-23T00:11:28;98674.91;;;20.29;53.87
40155;BME280;25875;48.202;16.334;2023-05-23T00:13:55;98669.84;;;20.26;53.90
40155;BME280;25875;48.202;16.334;2023-05-23T00:16:25;98630.53;;;19.99;54.48
40155;BME280;25875;48.202;16.334;2023-05-23T00:18:52;98671.78;;;20.15;54.13
40155;BME280;25875;48.202;16.334;2023-05-23T00:21:21;98670.75;;;20.08;54.49
40155;BME280;25875;48.202;16.334;2023-05-23T00:23:48;98672.06;;;20.04;54.31
40155;BME280;25875;48.202;16.334;2023-05-23T00:26:16;98668.84;;;20.01;54.91
40155;BME280;25875;48.202;16.334;2023-05-23T00:28:43;98671.72;;;19.99;54.97
40155;BME280;25875;48.202;16.334;2023-05-23T00:31:10;98673.41;;;20.00;54.59
40155;BME280;25875;48.202;16.334;2023-05-23T00:33:36;98674.88;;;19.95;54.68
40155;BME280;25875;48.202;16.334;2023-05-23T00:36:03;98550.41;;;19.16;54.83
40155;BME280;25875;48.202;16.334;2023-05-23T00:38:30;98595.69;;;19.37;55.05
40155;BME280;25875;48.202;16.334;2023-05-23T00:40:57;98682.38;;;19.83;55.07
40155;BME280;25875;48.202;16.334;2023-05-23T00:43:25;98676.44;;;19.79;55.40
40155;BME280;25875;48.202;16.334;2023-05-23T00:45:53;98676.31;;;19.81;55.08
40155;BME280;25875;48.202;16.334;2023-05-23T00:48:21;98678.09;;;19.72;55.44
40155;BME280;25875;48.202;16.334;2023-05-23T00:50:48;98680.41;;;19.67;55.51
40155;BME280;25875;48.202;16.334;2023-05-23T00:53:14;98680.72;;;19.64;55.53
40155;BME280;25875;48.202;16.334;2023-05-23T00:55:41;98683.41;;;19.64;55.38
40155;BME280;25875;48.202;16.334;2023-05-23T00:58:09;98682.56;;;19.64;55.56
40155;BME280;25875;48.202;16.334;2023-05-23T01:00:38;98677.50;;;19.61;56.05
40155;BME280;25875;48.202;16.334;2023-05-23T01:03:05;98674.44;;;19.55;56.22
40155;BME280;25875;48.202;16.334;2023-05-23T01:05:32;98677.78;;;19.49;56.14
40155;BME280;25875;48.202;16.334;2023-05-23T01:07:59;98675.56;;;19.45;56.13
40155;BME280;25875;48.202;16.334;2023-05-23T01:10:28;98676.88;;;19.41;56.17
40155;BME280;25875;48.202;16.334;2023-05-23T01:13:19;98675.19;;;19.40;57.42
40155;BME280;25875;48.202;16.334;2023-05-23T01:15:50;98662.50;;;19.32;56.73
40155;BME280;25875;48.202;16.334;2023-05-23T01:18:24;98667.19;;;19.30;56.69
40155;BME280;25875;48.202;16.334;2023-05-23T01:20:54;98669.09;;;19.38;56.75
40155;BME280;25875;48.202;16.334;2023-05-23T01:23:40;98663.03;;;19.36;57.75
40155;BME280;25875;48.202;16.334;2023-05-23T01:26:17;98662.66;;;19.31;57.27
40155;BME280;25875;48.202;16.334;2023-05-23T01:28:55;98669.03;;;19.30;57.22
40155;BME280;25875;48.202;16.334;2023-05-23T01:31:26;98664.50;;;19.30;56.96
40155;BME280;25875;48.202;16.334;2023-05-23T01:33:55;98654.59;;;19.31;56.53
40155;BME280;25875;48.202;16.334;2023-05-23T01:36:22;98618.50;;;19.07;56.53
40155;BME280;25875;48.202;16.334;2023-05-23T01:38:49;98659.59;;;19.26;56.53
40155;BME280;25875;48.202;16.334;2023-05-23T01:41:16;98656.84;;;19.17;56.99
40155;BME280;25875;48.202;16.334;2023-05-23T01:43:44;98656.00;;;19.17;56.99
40155;BME280;25875;48.202;16.334;2023-05-23T01:46:13;98600.44;;;18.74;57.16
40155;BME280;25875;48.202;16.334;2023-05-23T01:48:41;98649.88;;;19.07;57.30
40155;BME280;25875;48.202;16.334;2023-05-23T01:51:08;98610.94;;;18.85;57.16
40155;BME280;25875;48.202;16.334;2023-05-23T01:53:36;98564.16;;;18.52;57.25
40155;BME280;25875;48.202;16.334;2023-05-23T01:56:03;98620.50;;;18.87;57.52
40155;BME280;25875;48.202;16.334;2023-05-23T01:58:30;98607.31;;;18.76;57.54
40155;BME280;25875;48.202;16.334;2023-05-23T02:00:56;98647.59;;;18.94;57.65
40155;BME280;25875;48.202;16.334;2023-05-23T02:03:25;98642.00;;;18.87;57.94
40155;BME280;25875;48.202;16.334;2023-05-23T02:05:52;98652.88;;;18.86;57.64
40155;BME280;25875;48.202;16.334;2023-05-23T02:08:18;98653.19;;;18.83;58.09
40155;BME280;25875;48.202;16.334;2023-05-23T02:10:46;98655.88;;;18.83;58.00
40155;BME280;25875;48.202;16.334;2023-05-23T02:13:12;98647.81;;;18.83;57.90
40155;BME280;25875;48.202;16.334;2023-05-23T02:15:39;98641.59;;;18.82;57.92
40155;BME280;25875;48.202;16.334;2023-05-23T02:18:06;98639.22;;;18.79;58.05
40155;BME280;25875;48.202;16.334;2023-05-23T02:20:34;98643.22;;;18.75;58.31
40155;BME280;25875;48.202;16.334;2023-05-23T02:23:01;98631.41;;;18.68;58.06
40155;BME280;25875;48.202;16.334;2023-05-23T02:25:27;98633.72;;;18.63;58.31
40155;BME280;25875;48.202;16.334;2023-05-23T02:27:54;98634.84;;;18.61;58.57
40155;BME280;25875;48.202;16.334;2023-05-23T02:30:21;98637.84;;;18.57;58.46
40155;BME280;25875;48.202;16.334;2023-05-23T02:32:47;98632.31;;;18.59;58.78
40155;BME280;25875;48.202;16.334;2023-05-23T02:35:14;98633.31;;;18.58;58.80
40155;BME280;25875;48.202;16.334;2023-05-23T02:37:42;98631.47;;;18.58;58.87
40155;BME280;25875;48.202;16.334;2023-05-23T02:40:09;98607.97;;;18.43;58.86
40155;BME280;25875;48.202;16.334;2023-05-23T02:42:36;98627.69;;;18.51;58.89
40155;BME280;25875;48.202;16.334;2023-05-23T02:45:03;98633.38;;;18.48;58.68
40155;BME280;25875;48.202;16.334;2023-05-23T02:47:30;98630.84;;;18.47;58.91
40155;BME280;25875;48.202;16.334;2023-05-23T02:49:57;98638.03;;;18.46;58.91
40155;BME280;25875;48.202;16.334;2023-05-23T02:52:24;98630.97;;;18.45;59.03
40155;BME280;25875;48.202;16.334;2023-05-23T02:54:52;98623.94;;;18.44;58.98
40155;BME280;25875;48.202;16.334;2023-05-23T02:57:19;98634.13;;;18.41;58.87
40155;BME280;25875;48.202;16.334;2023-05-23T02:59:45;98631.06;;;18.36;58.96
40155;BME280;25875;48.202;16.334;2023-05-23T03:02:12;98585.50;;;18.08;58.88
40155;BME280;25875;48.202;16.334;2023-05-23T03:04:39;98628.53;;;18.34;59.49
40155;BME280;25875;48.202;16.334;2023-05-23T03:07:05;98630.19;;;18.35;59.08
40155;BME280;25875;48.202;16.334;2023-05-23T03:09:34;98626.81;;;18.33;59.31
40155;BME280;25875;48.202;16.334;2023-05-23T03:12:02;98619.25;;;18.28;59.61
40155;BME280;25875;48.202;16.334;2023-05-23T03:14:29;98636.72;;;18.33;59.14
40155;BME280;25875;48.202;16.334;2023-05-23T03:16:55;98629.66;;;18.32;59.55
40155;BME280;25875;48.202;16.334;2023-05-23T03:19:22;98636.03;;;18.31;59.38
40155;BME280;25875;48.202;16.334;2023-05-23T03:21:49;98635.03;;;18.32;59.60
40155;BME280;25875;48.202;16.334;2023-05-23T03:24:16;98637.72;;;18.32;59.60
40155;BME280;25875;48.202;16.334;2023-05-23T03:26:43;98642.38;;;18.30;59.48
40155;BME280;25875;48.202;16.334;2023-05-23T03:29:11;98615.38;;;18.13;59.61
40155;BME280;25875;48.202;16.334;2023-05-23T03:31:38;98644.53;;;18.26;59.70
40155;BME280;25875;48.202;16.334;2023-05-23T03:34:05;98645.38;;;18.26;59.48
40155;BME280;25875;48.202;16.334;2023-05-23T03:36:31;98649.75;;;18.27;59.40
40155;BME280;25875;48.202;16.334;2023-05-23T03:38:59;98649.19;;;18.24;59.80
40155;BME280;25875;48.202;16.334;2023-05-23T03:41:25;98652.88;;;18.23;59.51
40155;BME280;25875;48.202;16.334;2023-05-23T03:43:52;98651.03;;;18.23;60.06
40155;BME280;25875;48.202;16.334;2023-05-23T03:46:20;98651.72;;;18.25;59.79
40155;BME280;25875;48.202;16.334;2023-05-23T03:48:47;98656.53;;;18.22;59.76
40155;BME280;25875;48.202;16.334;2023-05-23T03:51:14;98654.00;;;18.20;59.79
40155;BME280;25875;48.202;16.334;2023-05-23T03:53:41;98662.91;;;18.21;60.05
40155;BME280;25875;48.202;16.334;2023-05-23T03:56:07;98664.75;;;18.20;60.10
40155;BME280;25875;48.202;16.334;2023-05-23T03:58:34;98665.44;;;18.22;60.25
40155;BME280;25875;48.202;16.334;2023-05-23T04:01:01;98659.91;;;18.24;60.43
40155;BME280;25875;48.202;16.334;2023-05-23T04:03:29;98635.44;;;18.09;60.46
40155;BME280;25875;48.202;16.334;2023-05-23T04:05:58;98662.91;;;18.21;60.54
40155;BME280;25875;48.202;16.334;2023-05-23T04:08:25;98323.72;;;16.17;60.46
40155;BME280;25875;48.202;16.334;2023-05-23T04:10:51;98657.84;;;18.18;60.43
40155;BME280;25875;48.202;16.334;2023-05-23T04:13:18;98667.56;;;18.19;60.41
40155;BME280;25875;48.202;16.334;2023-05-23T04:15:46;98658.69;;;18.18;60.72
40155;BME280;25875;48.202;16.334;2023-05-23T04:18:13;98662.34;;;18.17;60.95
40155;BME280;25875;48.202;16.334;2023-05-23T04:20:43;98662.50;;;18.16;60.78
40155;BME280;25875;48.202;16.334;2023-05-23T04:23:09;98657.00;;;18.17;60.87
40155;BME280;25875;48.202;16.334;2023-05-23T04:25:36;98658.69;;;18.18;60.94
40155;BME280;25875;48.202;16.334;2023-05-23T04:28:03;98657.84;;;18.18;60.79
40155;BME280;25875;48.202;16.334;2023-05-23T04:30:30;98651.63;;;18.17;61.09
40155;BME280;25875;48.202;16.334;2023-05-23T04:32:57;98654.16;;;18.19;61.28
40155;BME280;25875;48.202;16.334;2023-05-23T04:35:24;98652.31;;;18.19;61.23
40155;BME280;25875;48.202;16.334;2023-05-23T04:37:54;98660.22;;;18.21;61.37
40155;BME280;25875;48.202;16.334;2023-05-23T04:40:21;98666.28;;;18.23;61.33
40155;BME280;25875;48.202;16.334;2023-05-23T04:42:48;98663.28;;;18.26;61.31
40155;BME280;25875;48.202;16.334;2023-05-23T04:45:15;98658.63;;;18.28;61.40
40155;BME280;25875;48.202;16.334;2023-05-23T04:47:43;98666.81;;;18.26;61.53
40155;BME280;25875;48.202;16.334;2023-05-23T04:50:11;98555.13;;;17.62;61.45
40155;BME280;25875;48.202;16.334;2023-05-23T04:52:39;98652.13;;;18.31;61.27
40155;BME280;25875;48.202;16.334;2023-05-23T04:55:07;98661.84;;;18.32;61.35
40155;BME280;25875;48.202;16.334;2023-05-23T04:57:34;98666.22;;;18.33;61.55
40155;BME280;25875;48.202;16.334;2023-05-23T05:00:02;98667.91;;;18.34;61.18
40155;BME280;25875;48.202;16.334;2023-05-23T05:02:32;98661.41;;;18.36;61.32
40155;BME280;25875;48.202;16.334;2023-05-23T05:04:59;98581.84;;;17.82;61.30
40155;BME280;25875;48.202;16.334;2023-05-23T05:07:26;98655.19;;;18.36;61.29
40155;BME280;25875;48.202;16.334;2023-05-23T05:09:53;98656.88;;;18.37;61.14
40155;BME280;25875;48.202;16.334;2023-05-23T05:12:21;98649.53;;;18.39;61.73
40155;BME280;25875;48.202;16.334;2023-05-23T05:14:48;98649.53;;;18.39;61.21
40155;BME280;25875;48.202;16.334;2023-05-23T05:17:15;98652.50;;;18.36;61.27
40155;BME280;25875;48.202;16.334;2023-05-23T05:19:44;98649.13;;;18.34;61.35
40155;BME280;25875;48.202;16.334;2023-05-23T05:22:10;98406.75;;;16.81;61.17
40155;BME280;25875;48.202;16.334;2023-05-23T05:24:37;98658.56;;;18.38;61.15
40155;BME280;25875;48.202;16.334;2023-05-23T05:27:05;98660.94;;;18.41;60.81
40155;BME280;25875;48.202;16.334;2023-05-23T05:29:35;98631.56;;;18.21;61.08
40155;BME280;25875;48.202;16.334;2023-05-23T05:32:02;98669.84;;;18.41;61.16
40155;BME280;25875;48.202;16.334;2023-05-23T05:34:29;98660.25;;;18.39;60.70
40155;BME280;25875;48.202;16.334;2023-05-23T05:36:56;98668.47;;;18.37;60.75
40155;BME280;25875;48.202;16.334;2023-05-23T05:39:23;98668.00;;;18.42;61.10
40155;BME280;25875;48.202;16.334;2023-05-23T05:41:51;98659.50;;;18.46;60.58
40155;BME280;25875;48.202;16.334;2023-05-23T05:44:17;98585.25;;;18.02;60.63
40155;BME280;25875;48.202;16.334;2023-05-23T05:46:46;98661.72;;;18.51;60.41
40155;BME280;25875;48.202;16.334;2023-05-23T05:49:13;98665.00;;;18.54;60.52
40155;BME280;25875;48.202;16.334;2023-05-23T05:51:40;98662.84;;;18.58;60.55
40155;BME280;25875;48.202;16.334;2023-05-23T05:54:07;98666.06;;;18.62;60.45
40155;BME280;25875;48.202;16.334;2023-05-23T05:56:34;98655.19;;;18.63;60.29
40155;BME280;25875;48.202;16.334;2023-05-23T05:59:00;98659.25;;;18.67;60.09
40155;BME280;25875;48.202;16.334;2023-05-23T06:01:27;98663.63;;;18.68;60.01
40155;BME280;25875;48.202;16.334;2023-05-23T06:03:56;98658.78;;;18.72;59.94
40155;BME280;25875;48.202;16.334;2023-05-23T06:06:23;98664.69;;;18.75;59.76
40155;BME280;25875;48.202;16.334;2023-05-23T06:08:50;98655.34;;;18.79;59.87
40155;BME280;25875;48.202;16.334;2023-05-23T06:11:17;98662.78;;;18.85;59.70
40155;BME280;25875;48.202;16.334;2023-05-23T06:13:44;98656.25;;;18.88;59.83
40155;BME280;25875;48.202;16.334;2023-05-23T06:16:11;98653.56;;;18.88;59.95
40155;BME280;25875;48.202;16.334;2023-05-23T06:18:39;98651.41;;;18.91;59.67
40155;BME280;25875;48.202;16.334;2023-05-23T06:21:08;98700.81;;;18.99;59.88
40155;BME280;25875;48.202;16.334;2023-05-23T06:23:35;98653.25;;;19.09;59.52
40155;BME280;25875;48.202;16.334;2023-05-23T06:26:02;98644.72;;;19.13;59.55
40155;BME280;25875;48.202;16.334;2023-05-23T06:28:32;98651.31;;;19.19;59.13
40155;BME280;25875;48.202;16.334;2023-05-23T06:30:59;98652.38;;;19.26;59.51
40155;BME280;25875;48.202;16.334;2023-05-23T06:33:25;98654.28;;;19.34;59.52
40155;BME280;25875;48.202;16.334;2023-05-23T06:35:52;98642.94;;;19.40;59.27
40155;BME280;25875;48.202;16.334;2023-05-23T06:38:20;98649.22;;;19.48;59.41
40155;BME280;25875;48.202;16.334;2023-05-23T06:40:47;98596.22;;;19.15;58.71
40155;BME280;25875;48.202;16.334;2023-05-23T06:43:14;98653.84;;;19.64;58.44
40155;BME280;25875;48.202;16.334;2023-05-23T06:45:40;98647.16;;;19.68;58.19
40155;BME280;25875;48.202;16.334;2023-05-23T06:48:07;98644.81;;;19.73;58.30
40155;BME280;25875;48.202;16.334;2023-05-23T06:50:34;98625.13;;;19.65;58.17
40155;BME280;25875;48.202;16.334;2023-05-23T06:53:00;98651.47;;;19.87;57.85
40155;BME280;25875;48.202;16.334;2023-05-23T06:55:28;98645.97;;;19.97;57.88
40155;BME280;25875;48.202;16.334;2023-05-23T06:57:58;98637.28;;;20.11;57.85
40155;BME280;25875;48.202;16.334;2023-05-23T07:00:24;98655.38;;;20.27;57.27
40155;BME280;25875;48.202;16.334;2023-05-23T07:02:51;98637.94;;;20.39;56.86
40155;BME280;25875;48.202;16.334;2023-05-23T07:05:18;98644.53;;;20.61;56.60
40155;BME280;25875;48.202;16.334;2023-05-23T07:07:46;98643.91;;;20.83;56.42
40155;BME280;25875;48.202;16.334;2023-05-23T07:10:13;98630.63;;;21.06;55.41
40155;BME280;25875;48.202;16.334;2023-05-23T07:12:41;98623.22;;;21.32;55.22
40155;BME280;25875;48.202;16.334;2023-05-23T07:15:10;98620.78;;;21.62;54.47
40155;BME280;25875;48.202;16.334;2023-05-23T07:17:37;98630.84;;;21.92;53.79
40155;BME280;25875;48.202;16.334;2023-05-23T07:20:04;98621.28;;;22.21;53.01
40155;BME280;25875;48.202;16.334;2023-05-23T07:22:31;98618.66;;;22.44;51.96
40155;BME280;25875;48.202;16.334;2023-05-23T07:24:58;98587.75;;;22.46;51.71
40155;BME280;25875;48.202;16.334;2023-05-23T07:27:25;98616.97;;;22.96;51.18
40155;BME280;25875;48.202;16.334;2023-05-23T07:29:53;98618.81;;;23.19;50.11
40155;BME280;25875;48.202;16.334;2023-05-23T07:32:21;98616.53;;;23.30;49.99
40155;BME280;25875;48.202;16.334;2023-05-23T07:34:48;98605.00;;;23.51;49.63
40155;BME280;25875;48.202;16.334;2023-05-23T07:37:15;98607.63;;;23.74;48.77
40155;BME280;25875;48.202;16.334;2023-05-23T07:39:41;98572.53;;;23.81;48.43
40155;BME280;25875;48.202;16.334;2023-05-23T07:42:08;98607.44;;;24.20;47.81
40155;BME280;25875;48.202;16.334;2023-05-23T07:44:35;98606.28;;;24.29;47.56
40155;BME280;25875;48.202;16.334;2023-05-23T07:47:04;98611.94;;;24.49;47.35
40155;BME280;25875;48.202;16.334;2023-05-23T07:49:30;98609.69;;;24.52;46.75
40155;BME280;25875;48.202;16.334;2023-05-23T07:51:57;98602.47;;;24.59;46.28
40155;BME280;25875;48.202;16.334;2023-05-23T07:54:24;98602.84;;;24.56;46.08
40155;BME280;25875;48.202;16.334;2023-05-23T07:56:51;98605.94;;;24.53;45.72
40155;BME280;25875;48.202;16.334;2023-05-23T07:59:18;98590.34;;;24.55;46.23
40155;BME280;25875;48.202;16.334;2023-05-23T08:01:45;98607.78;;;24.68;45.84
40155;BME280;25875;48.202;16.334;2023-05-23T08:04:16;98592.31;;;24.83;45.61
40155;BME280;25875;48.202;16.334;2023-05-23T08:06:42;98571.72;;;24.88;45.15
40155;BME280;25875;48.202;16.334;2023-05-23T08:09:11;98560.13;;;24.73;44.91
40155;BME280;25875;48.202;16.334;2023-05-23T08:11:38;98586.81;;;24.98;44.75
40155;BME280;25875;48.202;16.334;2023-05-23T08:14:05;98594.06;;;25.12;44.75
40155;BME280;25875;48.202;16.334;2023-05-23T08:16:33;98580.56;;;25.18;44.48
40155;BME280;25875;48.202;16.334;2023-05-23T08:19:00;98587.22;;;25.37;44.28
40155;BME280;25875;48.202;16.334;2023-05-23T08:21:28;98559.06;;;25.38;44.21
40155;BME280;25875;48.202;16.334;2023-05-23T08:23:56;98580.47;;;25.61;43.87
40155;BME280;25875;48.202;16.334;2023-05-23T08:26:23;98581.78;;;25.72;43.90
40155;BME280;25875;48.202;16.334;2023-05-23T08:28:51;98579.72;;;25.74;43.16
40155;BME280;25875;48.202;16.334;2023-05-23T08:31:18;98574.06;;;25.69;43.39
40155;BME280;25875;48.202;16.334;2023-05-23T08:33:45;98551.88;;;25.58;43.32
40155;BME280;25875;48.202;16.334;2023-05-23T08:36:11;98572.25;;;25.82;43.46
40155;BME280;25875;48.202;16.334;2023-05-23T08:38:39;98580.88;;;25.92;42.53
40155;BME280;25875;48.202;16.334;2023-05-23T08:41:12;98098.03;;;22.98;41.99
40155;BME280;25875;48.202;16.334;2023-05-23T08:43:41;98575.34;;;26.14;42.41
40155;BME280;25875;48.202;16.334;2023-05-23T08:46:08;98578.94;;;26.21;42.51
40155;BME280;25875;48.202;16.334;2023-05-23T08:48:37;98566.22;;;26.28;41.94
40155;BME280;25875;48.202;16.334;2023-05-23T08:51:04;98568.34;;;26.39;42.25
40155;BME280;25875;48.202;16.334;2023-05-23T08:53:32;98430.00;;;25.64;41.87
40155;BME280;25875;48.202;16.334;2023-05-23T08:56:03;98580.09;;;26.60;41.35
40155;BME280;25875;48.202;16.334;2023-05-23T08:58:31;98560.28;;;26.72;41.57
40155;BME280;25875;48.202;16.334;2023-05-23T09:00:58;98566.78;;;26.84;41.50
40155;BME280;25875;48.202;16.334;2023-05-23T09:03:26;98571.81;;;27.01;41.10
40155;BME280;25875;48.202;16.334;2023-05-23T09:05:54;98526.84;;;26.85;40.94
40155;BME280;25875;48.202;16.334;2023-05-23T09:08:22;98560.09;;;27.20;40.82
40155;BME280;25875;48.202;16.334;2023-05-23T09:10:49;98556.94;;;27.16;40.46
40155;BME280;25875;48.202;16.334;2023-05-23T09:13:17;98560.50;;;27.10;40.28
40155;BME280;25875;48.202;16.334;2023-05-23T09:16:01;98559.03;;;27.08;38.45
40155;BME280;25875;48.202;16.334;2023-05-23T09:18:33;98563.03;;;26.99;39.64
40155;BME280;25875;48.202;16.334;2023-05-23T09:21:01;98559.03;;;26.88;41.33
40155;BME280;25875;48.202;16.334;2023-05-23T09:23:29;98563.63;;;26.88;41.13
40155;BME280;25875;48.202;16.334;2023-05-23T09:26:01;98556.53;;;26.86;40.50
40155;BME280;25875;48.202;16.334;2023-05-23T09:28:29;98553.81;;;26.93;40.93
40155;BME280;25875;48.202;16.334;2023-05-23T09:30:57;98553.81;;;27.00;40.67
40155;BME280;25875;48.202;16.334;2023-05-23T09:33:28;98560.50;;;27.10;40.07
40155;BME280;25875;48.202;16.334;2023-05-23T09:35:55;98563.84;;;27.19;40.42
40155;BME280;25875;48.202;16.334;2023-05-23T09:38:23;98564.69;;;27.19;40.31
40155;BME280;25875;48.202;16.334;2023-05-23T09:40:54;98565.97;;;27.30;39.84
40155;BME280;25875;48.202;16.334;2023-05-23T09:43:22;98564.28;;;27.36;40.38
40155;BME280;25875;48.202;16.334;2023-05-23T09:45:52;98562.59;;;27.41;39.66
40155;BME280;25875;48.202;16.334;2023-05-23T09:48:19;98572.03;;;27.32;39.74
40155;BME280;25875;48.202;16.334;2023-05-23T09:50:45;98583.97;;;27.38;40.21
40155;BME280;25875;48.202;16.334;2023-05-23T09:53:15;98565.53;;;27.46;39.73
40155;BME280;25875;48.202;16.334;2023-05-23T09:55:42;98532.47;;;27.36;39.66
40155;BME280;25875;48.202;16.334;2023-05-23T09:58:09;98554.22;;;27.43;39.38
40155;BME280;25875;48.202;16.334;2023-05-23T10:00:36;98563.44;;;27.48;39.60
40155;BME280;25875;48.202;16.334;2023-05-23T10:03:10;98569.50;;;27.50;37.88
40155;BME280;25875;48.202;16.334;2023-05-23T10:05:42;98555.06;;;27.50;38.61
40155;BME280;25875;48.202;16.334;2023-05-23T10:08:13;98480.19;;;26.95;38.75
40155;BME280;25875;48.202;16.334;2023-05-23T10:13:58;98532.69;;;27.35;39.37
40155;BME280;25875;48.202;16.334;2023-05-23T10:16:30;98560.31;;;27.45;37.95
40155;BME280;25875;48.202;16.334;2023-05-23T10:19:05;98547.97;;;27.36;37.97
40155;BME280;25875;48.202;16.334;2023-05-23T10:21:36;98555.72;;;27.32;38.25
40155;BME280;25875;48.202;16.334;2023-05-23T10:24:06;98563.03;;;27.32;39.60
40155;BME280;25875;48.202;16.334;2023-05-23T10:26:33;98555.28;;;27.35;39.27
40155;BME280;25875;48.202;16.334;2023-05-23T10:29:01;98551.72;;;27.35;39.44
40155;BME280;25875;48.202;16.334;2023-05-23T10:31:30;98550.91;;;27.28;39.31
40155;BME280;25875;48.202;16.334;2023-05-23T10:34:04;98545.03;;;27.31;38.89
40155;BME280;25875;48.202;16.334;2023-05-23T10:36:38;98548.59;;;27.38;38.67
40155;BME280;25875;48.202;16.334;2023-05-23T10:39:12;98542.94;;;27.39;37.84
40155;BME280;25875;48.202;16.334;2023-05-23T10:41:44;98442.78;;;26.83;38.42
40155;BME280;25875;48.202;16.334;2023-05-23T10:44:19;98526.41;;;27.41;38.61
40155;BME280;25875;48.202;16.334;2023-05-23T10:46:51;98528.47;;;27.52;38.55
40155;BME280;25875;48.202;16.334;2023-05-23T10:49:20;98522.81;;;27.54;38.75
40155;BME280;25875;48.202;16.334;2023-05-23T10:51:48;98524.06;;;27.64;38.88
40155;BME280;25875;48.202;16.334;2023-05-23T10:54:17;98521.75;;;27.68;38.50
40155;BME280;25875;48.202;16.334;2023-05-23T10:56:45;98509.81;;;27.69;38.53
40155;BME280;25875;48.202;16.334;2023-05-23T10:59:19;98498.53;;;27.65;37.48
40155;BME280;25875;48.202;16.334;2023-05-23T11:01:49;98504.97;;;27.84;38.56
40155;BME280;25875;48.202;16.334;2023-05-23T11:04:25;98464.41;;;27.63;38.04
40155;BME280;25875;48.202;16.334;2023-05-23T11:06:53;98509.28;;;28.05;38.87
40155;BME280;25875;48.202;16.334;2023-05-23T11:09:21;98504.03;;;28.10;38.21
40155;BME280;25875;48.202;16.334;2023-05-23T11:11:53;98505.50;;;28.06;37.69
40155;BME280;25875;48.202;16.334;2023-05-23T11:14:31;98476.03;;;27.90;37.99
40155;BME280;25875;48.202;16.334;2023-05-23T11:16:59;98499.88;;;28.01;38.46
40155;BME280;25875;48.202;16.334;2023-05-23T11:19:27;98490.22;;;28.05;38.97
40155;BME280;25875;48.202;16.334;2023-05-23T11:21:56;98480.38;;;28.04;39.15
40155;BME280;25875;48.202;16.334;2023-05-23T11:24:47;98494.41;;;28.07;37.57
40155;BME280;25875;48.202;16.334;2023-05-23T11:27:15;98488.38;;;27.99;38.71
40155;BME280;25875;48.202;16.334;2023-05-23T11:29:45;98489.69;;;27.83;38.24
40155;BME280;25875;48.202;16.334;2023-05-23T11:32:22;98492.19;;;27.85;38.78
40155;BME280;25875;48.202;16.334;2023-05-23T11:34:50;98486.31;;;27.81;37.83
40155;BME280;25875;48.202;16.334;2023-05-23T11:37:17;98493.44;;;27.82;38.22
40155;BME280;25875;48.202;16.334;2023-05-23T11:39:44;98504.97;;;27.77;37.77
40155;BME280;25875;48.202;16.334;2023-05-23T11:42:11;98512.13;;;27.59;37.08
40155;BME280;25875;48.202;16.334;2023-05-23T11:44:38;98505.25;;;27.43;37.60
40155;BME280;25875;48.202;16.334;2023-05-23T11:47:05;98497.75;;;27.32;37.22
40155;BME280;25875;48.202;16.334;2023-05-23T11:49:35;98504.84;;;27.19;37.46
40155;BME280;25875;48.202;16.334;2023-05-23T11:52:04;98497.13;;;27.16;37.58
40155;BME280;25875;48.202;16.334;2023-05-23T11:54:31;98410.38;;;26.62;37.85
40155;BME280;25875;48.202;16.334;2023-05-23T11:56:58;98492.72;;;27.09;38.17
40155;BME280;25875;48.202;16.334;2023-05-23T11:59:25;98478.31;;;27.08;38.27
40155;BME280;25875;48.202;16.334;2023-05-23T12:01:53;98481.03;;;27.08;38.32
40155;BME280;25875;48.202;16.334;2023-05-23T12:04:20;98472.44;;;27.05;38.13
40155;BME280;25875;48.202;16.334;2023-05-23T12:06:48;98478.94;;;27.04;37.84
40155;BME280;25875;48.202;16.334;2023-05-23T12:09:16;98471.41;;;26.99;38.18
40155;BME280;25875;48.202;16.334;2023-05-23T12:11:43;98454.66;;;27.02;37.99
40155;BME280;25875;48.202;16.334;2023-05-23T12:14:14;98462.41;;;27.05;38.16
40155;BME280;25875;48.202;16.334;2023-05-23T12:16:42;98414.13;;;26.81;38.08
40155;BME280;25875;48.202;16.334;2023-05-23T12:19:10;98442.97;;;27.02;37.97
40155;BME280;25875;48.202;16.334;2023-05-23T12:21:41;98473.06;;;27.13;37.12
40155;BME280;25875;48.202;16.334;2023-05-23T12:24:25;98474.94;;;27.06;36.89
40155;BME280;25875;48.202;16.334;2023-05-23T12:26:53;98478.72;;;27.05;38.14
40155;BME280;25875;48.202;16.334;2023-05-23T12:29:21;98476.44;;;27.02;37.97
40155;BME280;25875;48.202;16.334;2023-05-23T12:31:53;98416.88;;;26.61;37.94
40155;BME280;25875;48.202;16.334;2023-05-23T12:34:20;98469.53;;;27.00;38.19
40155;BME280;25875;48.202;16.334;2023-05-23T12:36:47;98471.00;;;27.02;37.90
40155;BME280;25875;48.202;16.334;2023-05-23T12:39:23;98471.41;;;27.06;37.50
40155;BME280;25875;48.202;16.334;2023-05-23T12:41:50;98446.97;;;26.86;37.70
40155;BME280;25875;48.202;16.334;2023-05-23T12:44:17;98483.34;;;26.98;38.25
40155;BME280;25875;48.202;16.334;2023-05-23T12:46:44;98472.47;;;26.92;37.62
40155;BME280;25875;48.202;16.334;2023-05-23T12:49:12;98470.59;;;26.85;37.89
40155;BME280;25875;48.202;16.334;2023-05-23T12:51:39;98441.72;;;26.58;38.14
40155;BME280;25875;48.202;16.334;2023-05-23T12:54:07;98476.44;;;26.76;38.14
40155;BME280;25875;48.202;16.334;2023-05-23T12:56:35;98468.28;;;26.76;37.91
40155;BME280;25875;48.202;16.334;2023-05-23T12:59:02;98469.34;;;26.75;38.20